Time;durP1;ratioP1;P1;durP2;ratioP2;P2;SDS_P1;SDS_P2;PMS_P1;PMS_P2;Temp;Humidity;BMP_temperature;BMP_pressure;BME280_temperature;BME280_humidity;BME280_pressure;Samples;Min_cycle;Max_cycle;Signal;HPM_P1;HPM_P2
2023/01/30 00:00:55;;;;;;;26.90;12.10;;;;;;;-0.57;93.04;100469.65;111302;1208;99437;-62
2023/01/30 00:03:22;;;;;;;28.20;11.70;;;;;;;-0.59;92.87;100462.64;111063;1206;140130;-62
2023/01/30 00:05:47;;;;;;;22.60;11.40;;;;;;;-0.58;92.83;100460.01;111285;1209;99785;-62
2023/01/30 00:08:13;;;;;;;25.60;12.20;;;;;;;-0.58;92.75;100451.93;111144;1206;139002;-61
2023/01/30 00:10:39;;;;;;;31.40;12.10;;;;;;;-0.58;92.75;100445.78;111206;1219;99041;-62
2023/01/30 00:13:04;;;;;;;25.80;12.20;;;;;;;-0.59;92.72;100442.28;111158;1219;99015;-61
2023/01/30 00:15:29;;;;;;;24.00;11.20;;;;;;;-0.59;92.73;100435.96;111116;1209;140895;-62
2023/01/30 00:17:55;;;;;;;24.20;11.10;;;;;;;-0.61;92.62;100432.11;111204;1206;99053;-62
2023/01/30 00:20:20;;;;;;;25.20;12.20;;;;;;;-0.61;92.69;100434.39;111185;1206;140206;-61
2023/01/30 00:22:45;;;;;;;25.10;12.50;;;;;;;-0.60;92.54;100430.70;111169;1206;99125;-62
2023/01/30 00:25:11;;;;;;;27.60;12.00;;;;;;;-0.61;92.45;100432.80;111160;1207;98951;-61
2023/01/30 00:27:36;;;;;;;24.70;10.70;;;;;;;-0.61;92.72;100425.79;111142;1209;139444;-61
2023/01/30 00:30:04;;;;;;;23.60;11.80;;;;;;;-0.63;92.49;100417.72;111203;1208;99005;-61
2023/01/30 00:32:30;;;;;;;26.00;11.70;;;;;;;-0.64;92.47;100409.83;111068;1208;138827;-61
2023/01/30 00:34:56;;;;;;;22.90;11.40;;;;;;;-0.65;92.44;100409.13;111242;1206;99140;-61
2023/01/30 00:37:21;;;;;;;22.40;10.70;;;;;;;-0.66;92.52;100402.11;111418;1209;98938;-61
2023/01/30 00:39:46;;;;;;;25.00;11.60;;;;;;;-0.68;92.32;100396.85;111297;1207;139363;-61
2023/01/30 00:47:39;;;;;;;29.70;12.00;;;;;;;-0.76;92.25;100371.60;111254;1208;116821;-61
2023/01/30 00:50:05;;;;;;;23.90;10.90;;;;;;;-0.77;92.06;100362.13;111058;1209;139865;-61
2023/01/30 00:52:30;;;;;;;22.70;11.50;;;;;;;-0.77;92.28;100358.09;111291;1208;98938;-61
2023/01/30 00:54:55;;;;;;;22.30;11.10;;;;;;;-0.78;92.12;100352.66;111202;1206;98960;-61
2023/01/30 00:57:21;;;;;;;25.80;12.40;;;;;;;-0.78;92.17;100355.64;111150;1209;139912;-61
2023/01/30 00:59:46;;;;;;;24.80;11.60;;;;;;;-0.77;92.20;100345.29;111221;1206;98947;-61
2023/01/30 01:02:11;;;;;;;28.30;11.00;;;;;;;-0.76;92.29;100345.46;111040;1212;139679;-61
2023/01/30 01:04:42;;;;;;;20.40;10.10;;;;;;;-0.75;91.99;100342.48;111350;1206;99366;-61
2023/01/30 01:07:14;;;;;;;22.60;10.20;;;;;;;-0.74;92.15;100336.16;111194;1209;100351;-62
2023/01/30 01:09:40;;;;;;;24.30;10.20;;;;;;;-0.72;92.12;100331.23;111145;1205;139394;-61
2023/01/30 01:12:06;;;;;;;26.40;10.40;;;;;;;-0.71;92.04;100327.91;111260;1205;98931;-62
2023/01/30 01:14:32;;;;;;;25.00;10.50;;;;;;;-0.69;92.05;100321.40;111250;1208;140028;-61
2023/01/30 01:16:58;;;;;;;20.20;9.50;;;;;;;-0.67;92.08;100322.10;111376;1208;99053;-62
2023/01/30 01:19:23;;;;;;;26.10;10.70;;;;;;;-0.66;92.02;100324.20;111161;1212;100393;-61
2023/01/30 01:21:49;;;;;;;18.90;8.70;;;;;;;-0.63;92.05;100316.13;111140;1205;138985;-61
2023/01/30 01:24:15;;;;;;;25.70;10.70;;;;;;;-0.61;92.09;100311.73;111256;1209;112202;-62
2023/01/30 01:26:42;;;;;;;20.70;9.80;;;;;;;-0.59;91.99;100302.25;111126;1206;139499;-62
2023/01/30 01:29:11;;;;;;;20.40;9.50;;;;;;;-0.58;91.66;100295.23;111222;1209;98976;-62
2023/01/30 01:31:37;;;;;;;21.20;9.70;;;;;;;-0.57;91.75;100286.97;111081;1209;138879;-61
2023/01/30 01:34:02;;;;;;;20.20;8.40;;;;;;;-0.55;91.69;100280.30;111173;1209;98866;-61
2023/01/30 01:36:27;;;;;;;18.10;8.80;;;;;;;-0.54;91.52;100278.02;111258;1207;99063;-61
2023/01/30 01:38:52;;;;;;;24.80;9.10;;;;;;;-0.53;91.59;100269.23;111078;1209;139815;-61
2023/01/30 01:41:18;;;;;;;19.30;8.60;;;;;;;-0.53;91.42;100269.05;111215;1209;98998;-61
2023/01/30 01:44:06;;;;;;;17.70;8.90;;;;;;;-0.52;91.44;100256.41;111098;1209;140446;-61
2023/01/30 01:46:37;;;;;;;17.00;8.50;;;;;;;-0.51;91.41;100246.76;111231;1208;100001;-62
2023/01/30 01:49:12;;;;;;;17.30;9.40;;;;;;;-0.50;91.12;100238.85;111267;1209;108218;-64
2023/01/30 01:51:41;;;;;;;18.10;9.70;;;;;;;-0.50;91.42;100230.78;111043;1209;139419;-61
2023/01/30 01:54:15;;;;;;;17.60;8.80;;;;;;;-0.49;91.26;100226.56;111275;1209;99497;-63
2023/01/30 01:56:44;;;;;;;21.10;9.10;;;;;;;-0.50;91.27;100212.02;111117;1206;139194;-61
2023/01/30 01:59:28;;;;;;;18.90;9.20;;;;;;;-0.50;91.01;100201.83;111406;1213;100103;-61
2023/01/30 02:01:59;;;;;;;19.40;9.40;;;;;;;-0.52;90.98;100184.64;111032;1209;140393;-61
2023/01/30 02:05:00;;;;;;;;;;;;;;;-0.52;90.65;100166.04;111207;1206;99025;-61
2023/01/30 02:07:11;;;;;;;18.10;7.80;;;;;;;-0.53;90.76;100157.27;111186;1206;99431;-61
2023/01/30 02:09:37;;;;;;;18.40;9.30;;;;;;;-0.54;90.84;100153.94;111090;1208;140298;-61
2023/01/30 02:12:03;;;;;;;20.90;9.50;;;;;;;-0.54;90.62;100149.73;111318;1208;98960;-61
2023/01/30 02:14:32;;;;;;;15.80;8.60;;;;;;;-0.53;90.63;100140.07;111231;1210;140500;-61
2023/01/30 02:16:57;;;;;;;17.00;8.70;;;;;;;-0.54;90.56;100129.73;111288;1206;98474;-61
2023/01/30 02:19:45;;;;;;;19.00;9.10;;;;;;;-0.54;90.43;100124.29;111230;1208;99027;-61
2023/01/30 02:22:39;;;;;;;20.10;8.70;;;;;;;-0.54;90.19;100121.13;111239;1209;99854;-61
2023/01/30 02:25:22;;;;;;;15.50;7.70;;;;;;;-0.55;90.14;100110.77;111082;1209;107691;-61
2023/01/30 02:28:03;;;;;;;19.70;8.90;;;;;;;-0.55;90.06;100100.24;111138;1209;140490;-61
2023/01/30 02:30:56;;;;;;;24.30;9.40;;;;;;;-0.54;90.19;100094.98;111284;1206;97851;-61
2023/01/30 02:33:40;;;;;;;18.80;9.10;;;;;;;-0.54;89.98;100078.48;111116;1208;140451;-61
2023/01/30 02:36:43;;;;;;;21.50;8.80;;;;;;;-0.55;89.95;100074.27;111187;1209;99633;-61
2023/01/30 02:39:33;;;;;;;25.00;10.30;;;;;;;-0.55;89.64;100077.96;111069;1207;139488;-61
2023/01/30 02:42:13;;;;;;;21.20;8.40;;;;;;;-0.55;89.53;100064.10;111254;1206;99064;-61
2023/01/30 02:44:59;;;;;;;19.10;9.40;;;;;;;-0.56;89.85;100056.57;111166;1209;140894;-62
2023/01/30 02:47:38;;;;;;;19.70;8.70;;;;;;;-0.55;89.54;100049.36;111288;1209;116850;-61
2023/01/30 02:50:15;;;;;;;17.60;8.30;;;;;;;-0.54;89.49;100045.50;111073;1209;140831;-61
2023/01/30 02:52:42;;;;;;;19.70;8.60;;;;;;;-0.55;89.05;100039.89;111211;1206;107823;-62
2023/01/30 02:55:22;;;;;;;16.50;8.20;;;;;;;-0.55;89.11;100024.45;111227;1205;99164;-61
2023/01/30 02:57:48;;;;;;;19.60;10.20;;;;;;;-0.57;89.10;100006.92;111061;1206;140984;-61
2023/01/30 03:00:18;;;;;;;20.20;8.90;;;;;;;-0.58;89.06;99989.38;111175;1208;99456;-61
2023/01/30 03:03:22;;;;;;;19.60;9.70;;;;;;;-0.61;89.14;99967.64;111204;1205;140828;-61
2023/01/30 03:06:18;;;;;;;18.40;9.10;;;;;;;-0.63;88.95;99966.77;111191;1211;107505;-61
2023/01/30 03:08:52;;;;;;;19.70;8.70;;;;;;;-0.64;88.99;99974.34;111095;1208;139413;-61
2023/01/30 03:11:23;;;;;;;19.20;9.20;;;;;;;-0.64;88.90;99992.24;111191;1212;99428;-61
2023/01/30 03:13:54;;;;;;;32.40;9.50;;;;;;;-0.63;88.91;100007.31;111089;1208;139781;-61
2023/01/30 03:16:36;;;;;;;19.70;9.60;;;;;;;-0.63;88.81;100018.37;111228;1206;101382;-60
2023/01/30 03:19:05;;;;;;;22.60;10.00;;;;;;;-0.63;88.82;100018.54;111168;1206;107781;-61
2023/01/30 03:21:31;;;;;;;18.60;9.00;;;;;;;-0.62;88.48;100025.03;111047;1209;141272;-61
2023/01/30 03:23:56;;;;;;;21.00;9.30;;;;;;;-0.62;88.52;100012.92;111222;1206;99052;-60
2023/01/30 03:26:26;;;;;;;19.50;8.80;;;;;;;-0.63;88.72;99999.24;111102;1212;139872;-61
2023/01/30 03:28:52;;;;;;;15.50;7.70;;;;;;;-0.63;88.49;100008.72;111221;1204;106539;-62
2023/01/30 03:31:17;;;;;;;19.10;9.60;;;;;;;-0.64;88.63;99999.25;111164;1206;100361;-61
2023/01/30 03:33:43;;;;;;;18.10;9.10;;;;;;;-0.62;88.27;99992.23;111176;1209;140404;-61
2023/01/30 03:36:09;;;;;;;22.40;9.10;;;;;;;-0.62;88.21;99980.82;111154;1209;98926;-61
2023/01/30 03:38:35;;;;;;;19.00;9.40;;;;;;;-0.62;88.48;99968.53;111096;1209;139576;-61
2023/01/30 03:41:01;;;;;;;20.80;10.30;;;;;;;-0.62;88.47;99956.95;111211;1205;98973;-61
2023/01/30 03:43:27;;;;;;;21.30;10.50;;;;;;;-0.63;88.12;99944.50;111230;1206;115234;-61
2023/01/30 03:45:52;;;;;;;19.70;9.50;;;;;;;-0.62;88.13;99944.50;111109;1209;139289;-61
2023/01/30 03:48:17;;;;;;;24.20;10.00;;;;;;;-0.63;88.18;99939.59;111263;1206;100514;-61
2023/01/30 03:50:43;;;;;;;23.50;10.40;;;;;;;-0.64;87.94;99944.52;111075;1206;140253;-61
2023/01/30 03:53:08;;;;;;;19.70;9.50;;;;;;;-0.64;88.02;99933.98;111290;1206;99044;-61
2023/01/30 03:55:33;;;;;;;21.80;10.50;;;;;;;-0.63;87.96;99925.90;111099;1210;139702;-61
2023/01/30 03:57:59;;;;;;;20.40;9.90;;;;;;;-0.63;87.83;99922.58;111231;1209;100337;-61
2023/01/30 04:00:24;;;;;;;17.90;9.00;;;;;;;-0.63;87.91;99922.05;111266;1207;99023;-61
2023/01/30 04:02:50;;;;;;;17.70;9.00;;;;;;;-0.64;87.81;99911.01;111118;1209;140261;-64
2023/01/30 04:05:16;;;;;;;18.60;9.50;;;;;;;-0.66;87.81;99899.08;111249;1204;98964;-61
2023/01/30 04:07:42;;;;;;;19.80;9.50;;;;;;;-0.65;87.82;99898.04;111205;1209;139335;-61
2023/01/30 04:10:08;;;;;;;20.60;10.90;;;;;;;-0.66;87.68;99893.48;111230;1210;99045;-61
2023/01/30 04:12:33;;;;;;;20.80;10.60;;;;;;;-0.68;87.71;99886.13;111247;1209;98985;-67
2023/01/30 04:14:58;;;;;;;20.30;9.40;;;;;;;-0.69;87.63;99878.24;111215;1206;138687;-61
2023/01/30 04:17:24;;;;;;;22.00;10.10;;;;;;;-0.71;87.60;99880.89;111223;1208;98954;-61
2023/01/30 04:19:49;;;;;;;23.20;10.80;;;;;;;-0.72;87.56;99871.27;111187;1206;139280;-61
2023/01/30 04:22:14;;;;;;;22.80;10.50;;;;;;;-0.73;87.59;99872.14;111243;1206;99139;-62
2023/01/30 04:24:39;;;;;;;21.80;11.20;;;;;;;-0.76;87.51;99866.21;111253;1206;99037;-61
2023/01/30 04:27:05;;;;;;;23.80;11.90;;;;;;;-0.77;87.62;99869.03;111151;1209;140221;-61
2023/01/30 04:29:30;;;;;;;23.60;11.30;;;;;;;-0.80;87.57;99866.08;111245;1209;99025;-61
2023/01/30 04:31:55;;;;;;;18.70;8.60;;;;;;;-0.83;87.57;99866.10;111103;1208;139755;-61
2023/01/30 04:34:20;;;;;;;23.40;10.40;;;;;;;-0.86;87.55;99855.80;111180;1207;99811;-61
2023/01/30 04:36:46;;;;;;;19.50;10.00;;;;;;;-0.89;87.74;99854.42;111222;1208;100442;-61
2023/01/30 04:39:11;;;;;;;17.80;9.10;;;;;;;-0.91;87.72;99849.52;111011;1208;139003;-64
2023/01/30 04:41:36;;;;;;;21.10;9.80;;;;;;;-0.93;87.85;99852.35;111216;1208;99044;-61
2023/01/30 04:44:01;;;;;;;23.10;11.70;;;;;;;-0.95;87.79;99844.65;111158;1206;138695;-61
2023/01/30 04:46:27;;;;;;;24.70;11.90;;;;;;;-0.97;87.90;99850.11;111155;1208;98961;-61
2023/01/30 04:48:52;;;;;;;24.70;11.60;;;;;;;-1.00;87.88;99846.80;111276;1208;98934;-61
2023/01/30 04:51:17;;;;;;;29.00;11.90;;;;;;;-1.02;87.75;99842.08;111095;1208;140310;-61
2023/01/30 04:53:43;;;;;;;31.90;12.20;;;;;;;-1.03;88.07;99835.44;111285;1207;98999;-61
2023/01/30 04:56:08;;;;;;;26.10;11.80;;;;;;;-1.04;88.12;99822.81;111070;1209;139454;-61
2023/01/30 04:58:33;;;;;;;26.30;12.30;;;;;;;-1.05;88.04;99822.48;111175;1208;98955;-61
2023/01/30 05:01:30;;;;;;;22.40;11.30;;;;;;;-1.05;88.06;99811.79;111288;1206;99047;-61
2023/01/30 05:03:55;;;;;;;24.90;11.30;;;;;;;-1.07;88.57;99806.90;111093;1206;140404;-61
2023/01/30 05:06:22;;;;;;;30.30;12.60;;;;;;;-1.07;88.51;99800.76;111204;1209;99063;-61
2023/01/30 05:08:52;;;;;;;29.40;12.20;;;;;;;-1.08;88.60;99793.94;111155;1205;139221;-61
2023/01/30 05:11:18;;;;;;;30.50;12.60;;;;;;;-1.08;88.53;99794.98;111189;1209;112509;-62
2023/01/30 05:13:44;;;;;;;27.60;12.70;;;;;;;-1.08;88.85;99789.02;111179;1206;139506;-62
2023/01/30 05:16:11;;;;;;;27.50;12.20;;;;;;;-1.09;88.74;99783.08;111251;1206;99076;-62
2023/01/30 05:18:37;;;;;;;35.80;12.60;;;;;;;-1.10;88.81;99773.96;111194;1210;99063;-62
2023/01/30 05:21:13;;;;;;;29.30;12.00;;;;;;;-1.12;88.63;99765.40;111106;1208;139753;-62
2023/01/30 05:23:39;;;;;;;29.60;12.40;;;;;;;-1.14;88.97;99759.64;111290;1206;100337;-62
2023/01/30 05:26:05;;;;;;;29.60;12.30;;;;;;;-1.16;89.45;99743.52;111031;1206;139441;-62
2023/01/30 05:28:31;;;;;;;24.30;10.40;;;;;;;-1.17;89.76;99740.73;111292;1209;98970;-62
2023/01/30 05:31:04;;;;;;;32.10;13.70;;;;;;;-1.18;89.20;99737.23;111206;1206;112671;-60
2023/01/30 05:33:30;;;;;;;32.00;12.70;;;;;;;-1.19;89.38;99722.17;111091;1206;140594;-62
2023/01/30 05:35:55;;;;;;;28.00;12.40;;;;;;;-1.19;89.35;99729.19;111213;1206;99066;-62
2023/01/30 05:38:24;;;;;;;28.10;13.40;;;;;;;-1.19;89.32;99725.51;111126;1205;140609;-62
2023/01/30 05:41:04;;;;;;;33.00;14.40;;;;;;;-1.18;89.56;99719.53;111282;1206;112794;-62
2023/01/30 05:43:30;;;;;;;33.30;15.20;;;;;;;-1.16;90.08;99716.71;111229;1205;99728;-62
2023/01/30 05:45:58;;;;;;;29.70;13.90;;;;;;;-1.15;89.93;99712.31;111079;1209;139102;-62
2023/01/30 05:48:24;;;;;;;29.40;11.60;;;;;;;-1.15;89.79;99705.65;111226;1206;98954;-62
2023/01/30 05:50:53;;;;;;;30.50;13.90;;;;;;;-1.14;89.91;99701.96;111159;1209;138876;-62
2023/01/30 05:53:20;;;;;;;33.70;14.00;;;;;;;-1.13;90.13;99702.14;111282;1208;100061;-62
2023/01/30 05:55:46;;;;;;;28.30;13.50;;;;;;;-1.13;90.09;99694.94;111227;1206;139885;-61
2023/01/30 05:58:11;;;;;;;26.70;13.10;;;;;;;-1.12;90.35;99696.50;111183;1208;97813;-64
2023/01/30 06:00:37;;;;;;;30.60;14.70;;;;;;;-1.12;90.52;99681.95;111294;1206;99040;-63
2023/01/30 06:03:02;;;;;;;34.30;17.20;;;;;;;-1.11;90.55;99680.36;111108;1209;139724;-62
2023/01/30 06:05:27;;;;;;;37.40;14.70;;;;;;;-1.09;90.59;99677.71;111293;1206;98980;-62
2023/01/30 06:07:53;;;;;;;31.10;14.70;;;;;;;-1.08;90.58;99676.64;111080;1219;140645;-62
2023/01/30 06:10:18;;;;;;;35.80;15.10;;;;;;;-1.07;90.71;99677.33;111190;1210;99206;-62
2023/01/30 06:12:43;;;;;;;40.60;14.90;;;;;;;-1.06;90.69;99673.64;111230;1208;99025;-63
2023/01/30 06:15:09;;;;;;;35.10;13.90;;;;;;;-1.05;90.93;99673.45;111052;1205;138862;-62
2023/01/30 06:17:35;;;;;;;29.20;14.60;;;;;;;-1.04;90.79;99663.61;111271;1210;99820;-63
2023/01/30 06:20:00;;;;;;;31.30;14.10;;;;;;;-1.02;91.08;99665.71;111138;1205;140700;-62
2023/01/30 06:22:25;;;;;;;29.50;12.90;;;;;;;-1.00;90.97;99672.52;111196;1208;100592;-61
2023/01/30 06:24:50;;;;;;;32.50;15.00;;;;;;;-0.98;91.22;99668.63;111285;1206;99022;-62
2023/01/30 06:27:16;;;;;;;30.10;14.20;;;;;;;-0.95;91.37;99659.48;111074;1206;139120;-62
2023/01/30 06:29:41;;;;;;;27.60;12.80;;;;;;;-0.92;91.44;99660.15;111238;1206;99043;-61
2023/01/30 06:32:08;;;;;;;29.50;14.80;;;;;;;-0.88;91.65;99662.73;111026;1208;139373;-61
2023/01/30 06:34:33;;;;;;;27.40;13.00;;;;;;;-0.85;91.77;99659.71;111256;1206;98959;-65
2023/01/30 06:36:59;;;;;;;31.40;14.70;;;;;;;-0.83;91.74;99670.20;111299;1209;98945;-62
2023/01/30 06:39:24;;;;;;;29.00;13.80;;;;;;;-0.79;91.74;99653.67;111135;1206;139336;-62
2023/01/30 06:41:50;;;;;;;27.00;12.90;;;;;;;-0.76;91.74;99649.95;111116;1206;98935;-62
2023/01/30 06:44:15;;;;;;;29.50;14.30;;;;;;;-0.73;92.19;99647.45;111139;1206;139522;-62
2023/01/30 06:46:40;;;;;;;30.70;13.20;;;;;;;-0.72;92.09;99636.73;111170;1209;98957;-61
2023/01/30 06:49:06;;;;;;;29.50;13.90;;;;;;;-0.70;92.22;99644.94;111204;1209;99062;-62
2023/01/30 06:51:31;;;;;;;29.80;14.10;;;;;;;-0.65;92.45;99646.27;111123;1208;140866;-61
2023/01/30 06:53:56;;;;;;;25.20;12.50;;;;;;;-0.62;92.54;99648.16;111188;1206;99027;-63
2023/01/30 06:56:21;;;;;;;29.00;13.60;;;;;;;-0.60;92.51;99627.78;111129;1209;139266;-62
2023/01/30 06:58:47;;;;;;;27.70;14.10;;;;;;;-0.58;92.51;99626.71;111211;1210;99049;-62
2023/01/30 07:01:13;;;;;;;28.50;12.80;;;;;;;-0.56;92.54;99624.23;111302;1206;98930;-62
2023/01/30 07:03:38;;;;;;;26.50;13.40;;;;;;;-0.55;92.78;99614.38;111048;1208;139028;-63
2023/01/30 07:06:04;;;;;;;30.70;13.70;;;;;;;-0.55;92.85;99607.88;111191;1210;99050;-62
2023/01/30 07:08:29;;;;;;;29.40;14.50;;;;;;;-0.54;92.81;99616.82;111133;1209;139322;-63
2023/01/30 07:10:54;;;;;;;30.00;14.50;;;;;;;-0.52;92.95;99614.52;111251;1206;98935;-62
2023/01/30 07:13:20;;;;;;;28.90;14.30;;;;;;;-0.52;92.92;99603.64;111287;1206;97884;-62
2023/01/30 07:15:45;;;;;;;33.50;15.10;;;;;;;-0.52;92.98;99604.52;111084;1208;139399;-62
2023/01/30 07:18:11;;;;;;;39.90;15.60;;;;;;;-0.53;92.98;99587.49;111160;1208;99000;-61
2023/01/30 07:20:37;;;;;;;29.30;14.10;;;;;;;-0.52;93.12;99583.45;111225;1208;139235;-62
2023/01/30 07:23:02;;;;;;;34.20;14.30;;;;;;;-0.53;93.37;99579.27;111137;1205;99053;-62
2023/01/30 07:25:28;;;;;;;35.80;15.60;;;;;;;-0.54;93.56;99580.33;111078;1218;99041;-62
2023/01/30 07:27:59;;;;;;;36.10;16.20;;;;;;;-0.54;93.34;99575.77;111008;1206;139658;-61
2023/01/30 07:30:25;;;;;;;;;;;;;;;-0.53;94.01;99578.38;111168;1208;100096;-63
2023/01/30 07:32:53;;;;;;;30.30;13.90;;;;;;;-0.52;93.93;99568.54;111032;1208;126071;-62
2023/01/30 07:35:19;;;;;;;33.10;16.40;;;;;;;-0.50;94.15;99573.42;111157;1206;102650;-63
2023/01/30 07:37:48;;;;;;;28.40;12.80;;;;;;;-0.48;94.02;99569.17;111206;1206;140208;-62
2023/01/30 07:40:14;;;;;;;32.80;14.70;;;;;;;-0.46;94.09;99567.02;111351;1208;98993;-62
2023/01/30 07:42:40;;;;;;;30.90;15.40;;;;;;;-0.43;94.23;99571.38;111204;1206;98954;-63
2023/01/30 07:45:06;;;;;;;28.90;15.10;;;;;;;-0.42;94.29;99568.02;111082;1208;139818;-62
2023/01/30 07:47:31;;;;;;;29.50;14.20;;;;;;;-0.40;94.65;99565.17;111208;1206;99088;-63
2023/01/30 07:49:57;;;;;;;32.70;16.40;;;;;;;-0.39;94.19;99565.16;111097;1206;139633;-63
2023/01/30 07:52:22;;;;;;;29.30;14.30;;;;;;;-0.37;94.55;99570.40;111184;1206;98874;-64
2023/01/30 07:54:47;;;;;;;30.20;15.30;;;;;;;-0.35;94.36;99570.71;111149;1218;98938;-64
2023/01/30 07:57:13;;;;;;;30.70;15.60;;;;;;;-0.35;94.73;99568.09;111055;1209;139809;-64
2023/01/30 07:59:38;;;;;;;29.10;15.20;;;;;;;-0.36;94.47;99568.44;110955;1206;100034;-64
2023/01/30 08:02:05;;;;;;;24.20;12.80;;;;;;;-0.35;94.81;99577.38;110997;1205;139624;-63
2023/01/30 08:04:30;;;;;;;24.50;12.40;;;;;;;-0.33;94.68;99562.09;111158;1205;99070;-64
2023/01/30 08:06:56;;;;;;;26.30;13.70;;;;;;;-0.31;94.93;99556.79;110997;1208;99063;-64
2023/01/30 08:09:21;;;;;;;24.90;13.50;;;;;;;-0.29;95.00;99553.07;110987;1207;138933;-62
2023/01/30 08:11:46;;;;;;;25.70;12.50;;;;;;;-0.28;95.12;99552.16;111249;1208;99015;-62
2023/01/30 08:14:12;;;;;;;30.40;13.10;;;;;;;-0.26;95.43;99552.33;111054;1209;140587;-62
2023/01/30 08:16:37;;;;;;;26.70;12.70;;;;;;;-0.24;95.49;99562.46;111149;1206;99425;-62
2023/01/30 08:19:05;;;;;;;22.70;11.70;;;;;;;-0.20;95.86;99554.48;110955;1206;107768;-62
2023/01/30 08:21:30;;;;;;;25.00;12.50;;;;;;;-0.19;95.77;99552.35;110904;1209;139343;-62
2023/01/30 08:23:55;;;;;;;24.70;12.10;;;;;;;-0.15;95.90;99548.44;111108;1206;99980;-62
2023/01/30 08:26:20;;;;;;;24.90;12.40;;;;;;;-0.12;95.94;99542.77;111035;1208;138888;-62
2023/01/30 08:28:46;;;;;;;23.40;12.40;;;;;;;-0.10;96.06;99539.38;111121;1209;98972;-61
2023/01/30 08:31:12;;;;;;;24.80;12.60;;;;;;;-0.07;96.12;99529.31;111266;1209;99065;-61
2023/01/30 08:33:38;;;;;;;22.00;11.60;;;;;;;-0.05;96.17;99536.83;111062;1206;140198;-62
2023/01/30 08:36:04;;;;;;;17.50;9.80;;;;;;;-0.02;96.15;99538.89;111119;1209;100286;-61
2023/01/30 08:38:29;;;;;;;21.50;11.20;;;;;;;0.02;96.28;99532.65;111123;1206;139283;-61
2023/01/30 08:40:56;;;;;;;22.70;12.00;;;;;;;0.04;96.39;99537.16;111149;1206;98955;-62
2023/01/30 08:43:22;;;;;;;21.30;11.50;;;;;;;0.07;96.42;99537.98;111171;1209;98925;-62
2023/01/30 08:45:47;;;;;;;22.70;12.40;;;;;;;0.10;96.53;99532.85;111108;1208;139449;-62
2023/01/30 08:48:13;;;;;;;22.30;11.80;;;;;;;0.13;96.54;99522.25;111083;1208;99839;-62
2023/01/30 08:50:38;;;;;;;23.90;12.50;;;;;;;0.15;96.52;99518.18;111074;1205;139596;-63
2023/01/30 08:53:06;;;;;;;21.20;11.20;;;;;;;0.18;96.84;99519.69;111155;1205;99059;-63
2023/01/30 08:55:32;;;;;;;22.60;12.10;;;;;;;0.20;96.66;99518.77;111181;1208;107343;-63
2023/01/30 08:57:57;;;;;;;24.30;10.50;;;;;;;0.21;97.00;99518.21;111051;1209;138802;-64
2023/01/30 09:00:22;;;;;;;20.10;10.00;;;;;;;0.24;97.14;99511.49;111124;1206;99075;-63
2023/01/30 09:02:52;;;;;;;22.40;11.30;;;;;;;0.26;97.23;99507.05;110988;1211;139229;-63
2023/01/30 09:05:17;;;;;;;22.60;11.40;;;;;;;0.32;97.13;99517.48;111205;1206;106748;-62
2023/01/30 09:07:42;;;;;;;25.10;12.30;;;;;;;0.38;97.14;99506.65;110995;1206;139940;-63
2023/01/30 09:10:08;;;;;;;24.10;10.80;;;;;;;0.41;97.16;99506.23;111146;1206;99713;-63
2023/01/30 09:12:34;;;;;;;24.80;11.70;;;;;;;0.42;97.19;99499.17;111153;1208;99780;-63
2023/01/30 09:14:59;;;;;;;22.70;11.00;;;;;;;0.44;97.15;99499.14;111117;1206;140559;-64
2023/01/30 09:17:25;;;;;;;28.50;11.90;;;;;;;0.47;97.05;99500.11;111144;1205;99891;-64
2023/01/30 09:19:50;;;;;;;24.90;12.40;;;;;;;0.51;97.34;99500.05;111045;1209;140207;-64
2023/01/30 09:22:16;;;;;;;24.30;11.90;;;;;;;0.52;97.41;99500.02;111114;1206;100252;-63
2023/01/30 09:24:41;;;;;;;27.90;12.50;;;;;;;0.54;97.38;99520.39;111097;1209;98989;-63
2023/01/30 09:27:07;;;;;;;26.60;12.50;;;;;;;0.56;97.56;99513.11;111081;1206;139172;-64
2023/01/30 09:29:33;;;;;;;25.00;12.40;;;;;;;0.55;97.72;99511.02;111371;1208;99013;-63
2023/01/30 09:31:58;;;;;;;34.80;14.70;;;;;;;0.55;97.66;99508.41;111053;1208;143063;-63
2023/01/30 09:34:27;;;;;;;26.70;13.70;;;;;;;0.54;97.77;99508.94;111130;1206;98926;-64
2023/01/30 09:37:00;;;;;;;28.60;13.10;;;;;;;0.54;97.89;99505.08;111151;1206;112343;-63
2023/01/30 09:39:27;;;;;;;30.70;13.10;;;;;;;0.54;97.72;99500.34;111170;1208;140176;-63
2023/01/30 09:42:04;;;;;;;23.40;10.40;;;;;;;0.56;97.86;99508.02;110993;1206;100469;-63
2023/01/30 09:44:48;;;;;;;23.90;11.80;;;;;;;0.61;98.16;99500.01;111186;1208;139803;-62
2023/01/30 09:47:27;;;;;;;25.70;12.80;;;;;;;0.65;98.29;99495.35;111118;1206;99020;-63
2023/01/30 09:50:15;;;;;;;27.60;13.50;;;;;;;0.68;98.23;99497.92;111034;1209;140198;-63
2023/01/30 09:52:59;;;;;;;30.50;13.30;;;;;;;0.71;98.37;99491.71;111155;1208;99028;-63
2023/01/30 09:55:28;;;;;;;23.40;10.50;;;;;;;0.71;98.38;99486.77;110961;1206;108233;-63
2023/01/30 09:57:56;;;;;;;24.40;11.50;;;;;;;0.72;98.37;99494.85;111173;1218;139963;-64
2023/01/30 10:00:38;;;;;;;28.00;13.10;;;;;;;0.72;98.42;99489.92;111074;1206;99437;-64
2023/01/30 10:03:15;;;;;;;23.00;11.60;;;;;;;0.73;98.44;99485.86;111030;1208;139699;-64
2023/01/30 10:06:01;;;;;;;24.80;12.80;;;;;;;0.74;98.39;99481.08;111144;1212;100130;-61
2023/01/30 10:08:32;;;;;;;24.90;11.40;;;;;;;0.76;98.44;99481.75;110925;1208;138757;-61
2023/01/30 10:11:11;;;;;;;23.20;11.10;;;;;;;0.77;98.40;99478.03;111060;1206;99054;-62
2023/01/30 10:13:45;;;;;;;23.30;11.40;;;;;;;0.79;98.52;99485.55;111131;1209;140941;-63
2023/01/30 10:16:32;;;;;;;25.20;12.60;;;;;;;0.79;98.54;99476.77;111167;1207;112843;-64
2023/01/30 10:19:03;;;;;;;22.30;10.60;;;;;;;0.79;98.60;99467.08;111132;1209;98932;-63
2023/01/30 10:21:53;;;;;;;23.80;11.30;;;;;;;0.79;98.49;99465.69;111052;1206;139109;-64
2023/01/30 10:24:34;;;;;;;23.50;11.00;;;;;;;0.79;98.49;99456.20;111138;1208;99002;-63
2023/01/30 10:26:59;;;;;;;24.40;11.40;;;;;;;0.79;98.46;99448.98;111056;1208;139886;-63
2023/01/30 10:29:40;;;;;;;23.50;11.40;;;;;;;0.80;98.47;99452.83;111114;1209;99024;-63
2023/01/30 10:32:40;;;;;;;20.10;10.30;;;;;;;0.82;98.76;99464.38;110997;1206;140908;-63
2023/01/30 10:35:15;;;;;;;22.40;9.80;;;;;;;0.83;98.64;99447.83;111089;1208;108124;-62
2023/01/30 10:38:18;;;;;;;20.80;10.20;;;;;;;0.85;98.59;99454.80;110910;1211;140932;-63
2023/01/30 10:41:11;;;;;;;22.70;11.00;;;;;;;0.89;98.82;99450.33;111206;1219;98948;-64
2023/01/30 10:43:42;;;;;;;21.90;10.00;;;;;;;0.90;98.82;99447.84;111084;1209;140732;-63
2023/01/30 10:46:39;;;;;;;22.90;10.40;;;;;;;0.89;98.97;99449.98;111043;1209;102729;-64
2023/01/30 10:49:12;;;;;;;21.30;9.10;;;;;;;0.89;98.91;99446.97;111151;1206;107825;-64
2023/01/30 10:51:58;;;;;;;21.30;10.40;;;;;;;0.88;98.89;99436.45;111076;1206;140231;-64
2023/01/30 10:54:54;;;;;;;19.50;10.10;;;;;;;0.90;98.96;99441.16;111179;1209;98924;-64
2023/01/30 10:57:28;;;;;;;21.80;10.50;;;;;;;0.92;99.12;99438.10;111050;1206;138595;-64
2023/01/30 11:00:03;;;;;;;16.40;8.80;;;;;;;0.95;99.16;99426.78;111216;1209;100033;-65
2023/01/30 11:02:46;;;;;;;23.90;10.70;;;;;;;0.98;99.21;99427.06;111138;1209;139101;-64
2023/01/30 11:05:19;;;;;;;22.40;10.80;;;;;;;1.04;99.03;99418.67;111045;1206;100541;-64
2023/01/30 11:07:46;;;;;;;16.50;9.20;;;;;;;1.10;99.19;99420.27;111074;1209;143662;-65
2023/01/30 11:10:21;;;;;;;22.10;10.70;;;;;;;1.14;99.42;99423.88;111177;1218;98932;-64
2023/01/30 11:12:47;;;;;;;19.60;10.50;;;;;;;1.17;99.36;99419.39;111193;1206;99968;-64
2023/01/30 11:15:13;;;;;;;20.70;10.40;;;;;;;1.20;99.27;99414.02;111039;1206;139569;-64
2023/01/30 11:17:44;;;;;;;19.20;10.70;;;;;;;1.23;99.06;99415.17;111265;1210;99035;-64
2023/01/30 11:20:15;;;;;;;19.10;9.60;;;;;;;1.28;99.18;99404.86;110938;1206;138961;-63
2023/01/30 11:22:50;;;;;;;22.80;9.30;;;;;;;1.34;99.19;99404.37;111118;1209;99158;-64